Trinidad, Trinidad Teniente Jorge Henrich Arauz Airport (SLTR)

NameTrinidad Teniente Jorge Henrich Arauz Airport
CityTrinidad
CountryBolivia
ICAOSLTR
IATATDD
Altitude155 m
CoordinatesGoogle Map
Live Air TrafficLiveATC.net
METARSLTR 080900Z 00000KT 9999 SCT005 FEW020CB BKN080 24/23 Q1008
2019-12-08 09:00:00 Wind: North (0°) 0 m/s - Visibility: > 10000 m - Temperature: 24 °C - Dew point: 23 °C - Humidity: 94.2% - Pressure: 1008 hPa
Statistics

The table below shows the detailed information of all flights to/from Trinidad, Trinidad Teniente Jorge Henrich Arauz Airport (SLTR).